Paul R Tregurtha — WYR4481 — position and weather

sailwx.info

Track history (hours):
 
Tides and Currents Weather Stations Pressure Air Temp Water Temp Dewpoint Dewpoint Depression Visibility Wind Speed Wind Dir Waves Ship Positions

Paul R Tregurtha

Owner: THE INTERLAKE STEAMSHIP COMPANY, Middleburg Heights, OH. More information available from US FCC via Universal Licensing System and Coast Guard Vessel Documentation Center.

Last reported at 2015-Jan-19 15:00 UTC. Time now 2015-Jan-31 14:36 UTC.
Position N 44°48' W 087°24'.
Warning: this ship's position is 11 days out of date.

Length 308 m; draft 8.5 m.

Type: Cargo ship. MMSI: 366904940.

Wind from 360 at 3 knots

Barometer 1017.7 mb
Air temperature -4.8 ° C
Water temperature 0.2 ° C

Date/timePositionNaut miles runAvg speedWind from/ knotsBaromVisibWave heightAir tempDewpointWater temp
2015-Jan-19 15:00N 44°48' W 087°24'0 0.0 360 / 31017.7 -4.8 0.2
2015-Jan-19 14:00N 44°48' W 087°24'0 0.0 040 / 51017.4 -5.2 0.2
2015-Jan-19 13:00N 44°48' W 087°24'0 0.0 010 / 21017.4 -4.7 0.3
2015-Jan-19 12:00N 44°48' W 087°24'0 0.0 350 / 61017.4 -4.8 0.4
2015-Jan-19 11:00N 44°48' W 087°24'0 0.0 340 / 41016.7 -4.5 0.3
2015-Jan-19 10:00N 44°48' W 087°24'0 0.0 350 / 51016.7 -4.4 0.3
2015-Jan-19 09:00N 44°48' W 087°24'0 0.0 340 / 91016.4 -4.4 0.3
2015-Jan-19 08:00N 44°48' W 087°24'0 0.0 350 / 71016.0 -4.0 0.3
2015-Jan-19 07:00N 44°48' W 087°24'0 0.0 350 / 101016.0 -4.0 0.3
2015-Jan-19 06:00N 44°48' W 087°24'0 0.0 340 / 81015.7 -3.7 0.3
2015-Jan-19 05:00N 44°48' W 087°24'0 0.0 350 / 61015.0 -3.4 0.3
2015-Jan-19 04:00N 44°48' W 087°24'0 0.0 350 / 61014.3 -3.0 0.3
2015-Jan-19 03:00N 44°48' W 087°24'0 0.0 040 / 61013.7 -2.4 0.5
2015-Jan-19 02:00N 44°48' W 087°24'0 0.0 020 / 51013.0 -1.7 0.4
2015-Jan-19 01:00N 44°48' W 087°24'0 0.0 330 / 81011.6 -0.5 0.3
2015-Jan-19 00:00N 44°48' W 087°24'0 0.0 300 / 81010.6 1.8 0.4
2015-Jan-18 22:00N 44°48' W 087°24'0 0.0 260 / 71009.3 1.8 0.3
2015-Jan-18 21:00N 44°48' W 087°24'0 0.0 280 / 81008.3 2.3 0.2
2015-Jan-18 20:00N 44°48' W 087°24'0 0.0 310 / 41007.9 2.0 0.2
2015-Jan-18 19:00N 44°48' W 087°24'0 0.0 280 / 71007.6 1.6 0.2
2015-Jan-18 18:00N 44°48' W 087°24'0 0.0 290 / 81006.9 1.2 0.2
2015-Jan-18 17:00N 44°48' W 087°24'0 0.0 290 / 71006.2 1.0 0.2
2015-Jan-18 16:00N 44°48' W 087°24'4 2.1 300 / 121006.2 1.0 0.3
2015-Jan-18 14:00N 44°48' W 087°18'4 4.3 280 / 91004.2 0.7 1.4
2015-Jan-18 13:00N 44°48' W 087°12'4 4.3 290 / 111003.2 0.9 2.6
2015-Jan-18 12:00N 44°48' W 087°06'13 6.4 290 / 171002.2 0.8 2.2
2015-Jan-18 10:00N 45°00' W 087°00'7 7.3 290 / 201000.5 0.9 2.3
2015-Jan-18 09:00N 45°06' W 086°54'1514.7 300 / 22999.4 1.4 2.4
2015-Jan-18 08:00N 45°18' W 086°42'7 7.3 290 / 17998.4 1.5 2.3
2015-Jan-18 07:00N 45°24' W 086°36'1010.3 280 / 11997.8 1.7 1.7
2015-Jan-18 06:00N 45°30' W 086°24'612.0 260 / 14996.7 1.6 1.9
2015-Jan-18 05:31N 45°35' W 086°21'11 9.8
2015-Jan-18 04:26N 45°40' W 086°07'2 4.2
2015-Jan-18 04:00N 45°42' W 086°06'715.7 250 / 15996.1 2.2 1.9
2015-Jan-18 03:33N 45°45' W 085°57'4 6.9
2015-Jan-18 03:00N 45°48' W 085°54'713.5 230 / 18995.7 2.3 0.8
2015-Jan-18 02:27N 45°50' W 085°44'4 9.5
2015-Jan-18 02:00N 45°54' W 085°42'716.1 220 / 14995.7 1.7 0.2
2015-Jan-18 01:33N 45°53' W 085°32'6 9.9
2015-Jan-18 01:00N 45°54' W 085°24'4 9.4 220 / 11996.4 1.7 1.2
2015-Jan-18 00:33N 45°52' W 085°19'5 8.7
2015-Jan-18 00:00N 45°54' W 085°12'613.4 210 / 13996.4 1.6 1.1
2015-Jan-17 23:33N 45°51' W 085°05'814.3
2015-Jan-17 23:00N 45°48' W 084°54'511.6 220 / 14996.7 2.1 0.5
2015-Jan-17 22:33N 45°49' W 084°47'4 6.7
2015-Jan-17 22:00N 45°48' W 084°42'920.3 150 / 16997.1 -1.0 1.3
2015-Jan-17 21:33N 45°51' W 084°30'916.0
2015-Jan-17 21:00N 45°48' W 084°18'510.9 150 / 21998.1 -1.1 2.1
2015-Jan-17 20:33N 45°48' W 084°11'1312.8
2015-Jan-17 19:33N 45°42' W 083°55'813.8
2015-Jan-17 19:00N 45°36' W 083°48'1010.3 160 / 161001.1 -2.6 2.1
2015-Jan-17 18:00N 45°30' W 083°36'3216.0 180 / 231003.5 -3.6 1.2
2015-Jan-17 16:00N 45°06' W 083°06'7 7.3 170 / 281007.6 -2.8 0.8
2015-Jan-17 15:00N 45°00' W 083°00'1312.7 170 / 301010.6 -3.0 2.3
2015-Jan-17 14:00N 44°48' W 082°54'33 8.2 160 / 341012.7 -4.2 1.2
2015-Jan-17 10:00N 44°18' W 082°36'7 7.4 170 / 241019.8 -4.9 1.5
2015-Jan-17 09:00N 44°12' W 082°30'13 6.4 180 / 191021.5 -5.0 1.6
2015-Jan-17 07:00N 44°00' W 082°24'7 7.4 170 / 161022.5 -5.3 2.3
2015-Jan-17 06:00N 43°54' W 082°18'6 6.0 170 / 91023.2 -5.1 2.2
2015-Jan-17 05:00N 43°48' W 082°18'6 6.0 100 / 71023.8 -6.6 2.2
2015-Jan-17 04:00N 43°42' W 082°18'1312.8 120 / 81024.8 -6.9 2.3
2015-Jan-17 03:00N 43°30' W 082°12'13 6.4 090 / 61024.5 -7.1 1.9
2015-Jan-17 01:00N 43°18' W 082°18'1312.8 020 / 51024.8 -7.3 0.3
2015-Jan-17 00:00N 43°06' W 082°24'6 6.0 330 / 101024.8 -7.2 0.2
2015-Jan-16 23:00N 43°00' W 082°24'1312.8 250 / 41024.5 -8.3 0.2
2015-Jan-16 22:00N 42°48' W 082°30'0 0.0 310 / 61024.2 -7.3 0.5
2015-Jan-16 21:00N 42°48' W 082°30'0 0.0 050 / 31023.2 -5.5 5.4
2015-Jan-16 20:00N 42°48' W 082°30'0 0.0 050 / 91022.5 -5.7 4.5
2015-Jan-16 19:00N 42°48' W 082°30'0 0.0 110 / 21021.8 -5.5 4.9
2015-Jan-16 18:00N 42°48' W 082°30'0 0.0 250 / 21021.8 -5.2 4.6
2015-Jan-16 17:00N 42°48' W 082°30'0 0.0 1021.5 -4.6 5.1
2015-Jan-16 16:00N 42°48' W 082°30'0 0.0 360 / 11021.1 -3.6 4.9
2015-Jan-16 14:00N 42°48' W 082°30'0 0.0 040 / 31019.1 -3.5 4.3
2015-Jan-16 13:00N 42°48' W 082°30'0 0.0 240 / 21017.4 -3.2 4.8
2015-Jan-16 12:00N 42°48' W 082°30'0 0.0 300 / 11016.7 -2.5 5.2
2015-Jan-16 11:00N 42°48' W 082°30'0 0.0 120 / 11015.4 -1.9 5.4
2015-Jan-16 10:00N 42°48' W 082°30'0 0.0 300 / 61013.3 -3.2 5.2
2015-Jan-16 09:00N 42°48' W 082°30'0 0.0 290 / 91013.0 -3.6 5.1
2015-Jan-16 07:00N 42°48' W 082°30'0 0.0 270 / 61012.0 -3.5 5.2
2015-Jan-16 06:00N 42°48' W 082°30'0 0.0 290 / 31011.6 -2.7 5.2
2015-Jan-16 02:00N 42°48' W 082°30'1312.8 200 / 91011.6 -3.7 0.1
2015-Jan-16 01:00N 43°00' W 082°24'6 6.0 220 / 121011.0 -4.1 0.1
2015-Jan-16 00:00N 43°06' W 082°24'6 6.0 220 / 211009.6 -3.9 0.2
2015-Jan-15 23:00N 43°12' W 082°24'0 0.0 200 / 211011.0 -3.7 0.2
2015-Jan-15 22:00N 43°12' W 082°24'6 6.0 200 / 231010.6 -3.6 0.2
2015-Jan-15 21:00N 43°18' W 082°24'6 6.0 200 / 211010.3 -3.9 0.2
2015-Jan-15 20:00N 43°24' W 082°24'1212.0 200 / 201010.3 -4.4 0.3
2015-Jan-15 19:00N 43°36' W 082°24'1312.8 190 / 181010.6 -5.4 0.4
2015-Jan-15 18:00N 43°48' W 082°30'2612.8 190 / 191011.3 -5.8 0.8
2015-Jan-15 16:00N 44°12' W 082°42'7 7.4 220 / 221013.0 -5.5 1.7
2015-Jan-15 15:00N 44°18' W 082°48'1212.0 240 / 241013.3 -5.5 1.6
2015-Jan-15 14:00N 44°30' W 082°48'4411.0 230 / 231013.0 -5.1 1.2
2015-Jan-15 10:00N 45°12' W 083°06'1514.7 220 / 191015.0 -4.7 2.5
2015-Jan-15 09:00N 45°24' W 083°18'1514.7 220 / 161015.4 -5.0 1.2
2015-Jan-15 08:00N 45°36' W 083°30'1010.3 220 / 181015.7 -4.5 1.7
2015-Jan-15 07:00N 45°42' W 083°42'2213.3 210 / 171016.0 -4.2 2.0
2015-Jan-15 05:20N 46°02' W 083°56'7 8.3
2015-Jan-15 04:27N 46°08' W 084°01'511.2
2015-Jan-15 04:00N 46°12' W 084°06'3 6.0 180 / 21019.1 -6.8 0.2
2015-Jan-15 03:33N 46°13' W 084°10'5 9.5
2015-Jan-15 03:00N 46°18' W 084°12'0 0.0 200 / 31020.1 -7.1 0.1
2015-Jan-15 02:00N 46°18' W 084°12'3 4.4 200 / 51020.1 -6.6 0.1
2015-Jan-15 01:22N 46°21' W 084°13'3 7.4
2015-Jan-15 01:00N 46°18' W 084°12'6 6.0 220 / 51020.4 -6.9 0.1
2015-Jan-15 00:00N 46°24' W 084°12'10 5.1 250 / 41020.4 -7.0 0.1
2015-Jan-14 22:00N 46°30' W 084°24'0 0.0 210 / 41020.7 -5.5 0.2
2015-Jan-14 21:00N 46°30' W 084°24'0 0.0 200 / 51020.3 -6.1 0.1
2015-Jan-14 20:00N 46°30' W 084°24'0 0.0 280 / 41020.7 -5.8 0.1
2015-Jan-14 19:00N 46°30' W 084°24'4 4.1 240 / 51020.7 -4.9 0.1
2015-Jan-14 18:00N 46°30' W 084°30'3 5.5 240 / 61021.3 -6.7 0.1
2015-Jan-14 17:22N 46°27' W 084°33'4 2.6
2015-Jan-14 16:00N 46°30' W 084°36'0 0.0 260 / 81022.4 -6.5 0.2
2015-Jan-14 15:00N 46°30' W 084°36'0 0.0 240 / 71022.7 -7.1 0.2
2015-Jan-14 14:00N 46°30' W 084°36'0 0.0 180 / 11022.7 -8.2 0.2
2015-Jan-14 13:00N 46°30' W 084°36'0 0.0 140 / 31022.7 -9.3 0.2
2015-Jan-14 12:00N 46°30' W 084°36'1 2.5 170 / 51023.0 -9.8 0.2
2015-Jan-14 11:30N 46°29' W 084°35'1 2.4
2015-Jan-14 11:00N 46°30' W 084°36'0 0.0 180 / 71023.4 0.2
2015-Jan-14 10:00N 46°30' W 084°36'0 0.0 130 / 61024.7 0.2
2015-Jan-14 09:00N 46°30' W 084°36'1 2.2 120 / 81025.7 0.2
2015-Jan-14 08:26N 46°29' W 084°35'0 0.0
2015-Jan-14 07:05N 46°29' W 084°35'113.2
2015-Jan-14 07:00N 46°30' W 084°36'0 0.0 110 / 81027.4 0.2
2015-Jan-14 06:00N 46°30' W 084°36'1 1.6 100 / 81028.1 0.2
2015-Jan-14 05:12N 46°29' W 084°35'1 5.9
2015-Jan-14 05:00N 46°30' W 084°36'0 0.0 120 / 101029.5 0.2
2015-Jan-14 04:00N 46°30' W 084°36'0 0.0 110 / 91030.8 0.2
2015-Jan-14 02:00N 46°30' W 084°36'0 0.0 110 / 61032.5 0.1
2015-Jan-14 01:00N 46°30' W 084°36'0 0.0 160 / 81033.9 0.2
2015-Jan-13 23:00N 46°30' W 084°36'0 0.0 170 / 121034.9 -9.9 0.2
2015-Jan-13 22:00N 46°30' W 084°36'0 0.0 180 / 71035.6 0.2
2015-Jan-13 19:00N 46°30' W 084°36'1 2.0 200 / 91037.6 -9.4 0.2
2015-Jan-13 18:23N 46°29' W 084°35'1 3.2
2015-Jan-13 18:00N 46°30' W 084°36'0 0.6 090 / 61038.6 0.2
2015-Jan-13 17:29N 46°30' W 084°36'4 8.3
2015-Jan-13 17:00N 46°30' W 084°42'612.3 120 / 81039.3 0.3
2015-Jan-13 16:29N 46°36' W 084°44'4 3.5
2015-Jan-13 15:22N 46°40' W 084°46'3 6.9
2015-Jan-13 15:00N 46°42' W 084°48'3 5.0 230 / 201039.6 0.9
2015-Jan-13 14:27N 46°40' W 084°47'3 3.6
2015-Jan-13 13:33N 46°42' W 084°50'5 4.7
2015-Jan-13 12:33N 46°46' W 084°54'2 3.7
2015-Jan-13 12:00N 46°48' W 084°54'5 9.8 240 / 171038.9 0.5
2015-Jan-13 11:29N 46°50' W 085°01'4 8.0
2015-Jan-13 11:00N 46°48' W 085°06'610.0 240 / 141039.3 0.7
2015-Jan-13 10:21N 46°53' W 085°12'411.6
2015-Jan-13 10:00N 46°54' W 085°18'1413.7 300 / 111039.6 -7.5 2.2
2015-Jan-13 09:00N 47°00' W 085°36'10413.0 270 / 101039.6 -8.0 3.4
2015-Jan-13 01:00N 47°36' W 088°00'1212.1 280 / 121041.0 3.2
2015-Jan-13 00:00N 47°36' W 088°18'6512.9 300 / 81041.0 2.9
2015-Jan-12 19:00N 47°36' W 089°54'1616.2 330 / 81041.0 2.1
2015-Jan-12 18:00N 47°36' W 090°18'2512.5 350 / 121041.0 1.8
2015-Jan-12 16:00N 47°30' W 090°54'1414.5 120 / 151041.0 1.8
2015-Jan-12 15:00N 47°18' W 091°06'1010.1 340 / 191040.3 2.0
2015-Jan-12 14:00N 47°12' W 091°18'1717.2 220 / 171038.6 2.1
2015-Jan-12 13:00N 47°00' W 091°36'1010.2 340 / 151037.3 3.0
2015-Jan-12 12:00N 46°54' W 091°48'1010.2 010 / 181036.2 1.8
2015-Jan-12 11:00N 46°48' W 092°00'7 7.3 350 / 181034.9 0.3
2015-Jan-12 10:00N 46°42' W 092°06'0 0.0 320 / 161034.2 0.4
2015-Jan-12 09:00N 46°42' W 092°06'0 0.0 320 / 101033.2 0.5
2015-Jan-12 08:00N 46°42' W 092°06'0 0.0 060 / 81032.2 0.3
2015-Jan-12 07:00N 46°42' W 092°06'0 0.0 320 / 71030.8 0.3
2015-Jan-12 06:00N 46°42' W 092°06'0 0.0 310 / 51029.8 0.3
2015-Jan-12 05:00N 46°42' W 092°06'0 0.0 280 / 61029.1 0.4
2015-Jan-12 04:00N 46°42' W 092°06'0 0.0 210 / 71028.4 0.4
2015-Jan-12 02:00N 46°42' W 092°06'0 0.0 230 / 51027.4 0.5
2015-Jan-12 01:00N 46°42' W 092°06'0 0.0 280 / 51027.4 0.5
2015-Jan-12 00:00N 46°42' W 092°06'0 0.0 340 / 61026.8 0.6
2015-Jan-11 23:00N 46°42' W 092°06'0 0.0 260 / 41026.1 0.6
2015-Jan-11 22:00N 46°42' W 092°06'6 3.0 270 / 81025.7 0.4
2015-Jan-11 20:00N 46°48' W 092°06'0 0.0 260 / 91025.4 0.4
2015-Jan-11 19:00N 46°48' W 092°06'1413.7 220 / 41025.1 0.6
2015-Jan-11 18:00N 46°54' W 091°48'1413.7 150 / 41024.4 1.9
2015-Jan-11 17:00N 47°00' W 091°30'1413.7 310 / 61024.4 2.6
2015-Jan-11 16:00N 47°06' W 091°12'1413.6 290 / 71024.0 2.2
2015-Jan-11 15:00N 47°12' W 090°54'1212.2 330 / 71023.7 1.6
2015-Jan-11 14:00N 47°12' W 090°36'7913.2 320 / 131022.4 1.4
2015-Jan-11 08:00N 47°30' W 088°42'1717.3 350 / 101019.3 -9.2 3.2
2015-Jan-11 07:00N 47°36' W 088°18'1212.1 350 / 81019.3 5.4 1.0-8.7 3.1
2015-Jan-11 06:00N 47°36' W 088°00'1413.5 220 / 81019.3 -8.8 2.9
2015-Jan-11 05:00N 47°30' W 087°42'7410.6 250 / 91019.6 -9.7 0.9
2015-Jan-10 22:00N 46°48' W 086°12'8 8.2 220 / 181017.3 -8.3 2.4
2015-Jan-10 21:00N 46°48' W 086°00'8 8.2 210 / 221016.9 -8.8 1.9
2015-Jan-10 20:00N 46°48' W 085°48'8 8.2 230 / 231016.3 1.5
2015-Jan-10 19:00N 46°48' W 085°36'1212.3 230 / 251015.6 2.2
2015-Jan-10 18:00N 46°48' W 085°18'8 8.2 210 / 261015.6 0.9
2015-Jan-10 17:00N 46°48' W 085°06'1010.2 220 / 231015.9 0.1
2015-Jan-10 16:00N 46°42' W 084°54'4 0.7 230 / 221016.9 0.2
2015-Jan-10 10:00N 46°42' W 085°00'0 0.0 240 / 191016.3 0.3
2015-Jan-10 08:00N 46°42' W 085°00'0 0.0 230 / 231015.9 0.3
2015-Jan-10 07:00N 46°42' W 085°00'0 0.0 250 / 151015.9 0.0 0.3
2015-Jan-10 02:00N 46°42' W 085°00'0 0.0 240 / 211014.2 0.3
2015-Jan-10 01:00N 46°42' W 085°00'0 0.0 240 / 261013.5 0.2
2015-Jan-10 00:00N 46°42' W 085°00'0 0.0 230 / 271012.5 0.2
2015-Jan-09 23:00N 46°42' W 085°00'0 0.0 250 / 221012.5 0.2
2015-Jan-09 22:00N 46°42' W 085°00'0 0.0 230 / 171012.5 0.3
2015-Jan-09 20:00N 46°42' W 085°00'0 0.0 250 / 131011.5 0.3
2015-Jan-09 19:00N 46°42' W 085°00'0 0.0 310 / 161011.5 0.3
2015-Jan-09 18:00N 46°42' W 085°00'0 0.0 300 / 171011.2 0.3
2015-Jan-09 16:00N 46°42' W 085°00'0 0.0 280 / 191011.2 0.3
2015-Jan-09 15:00N 46°42' W 085°00'   300 / 61010.8 0.3
Track history (hours):
 
Tides and Currents Weather Stations Pressure Air Temp Water Temp Dewpoint Dewpoint Depression Visibility Wind Speed Wind Dir Waves Ship Positions

Paul R Tregurtha

Owner: THE INTERLAKE STEAMSHIP COMPANY, Middleburg Heights, OH. More information available from US FCC via Universal Licensing System and Coast Guard Vessel Documentation Center.

Last reported at 2015-Jan-19 15:00 UTC. Time now 2015-Jan-31 14:36 UTC.
Position N 44°48' W 087°24'.
Warning: this ship's position is 11 days out of date.

Length 308 m; draft 8.5 m.

Type: Cargo ship. MMSI: 366904940.

Wind from 360 at 3 knots

Barometer 1017.7 mb
Air temperature -4.8 ° C
Water temperature 0.2 ° C

Date/timePositionNaut miles runAvg speedWind from/ knotsBaromVisibWave heightAir tempDewpointWater temp
2015-Jan-19 15:00N 44°48' W 087°24'0 0.0 360 / 31017.7 -4.8 0.2
2015-Jan-19 14:00N 44°48' W 087°24'0 0.0 040 / 51017.4 -5.2 0.2
2015-Jan-19 13:00N 44°48' W 087°24'0 0.0 010 / 21017.4 -4.7 0.3
2015-Jan-19 12:00N 44°48' W 087°24'0 0.0 350 / 61017.4 -4.8 0.4
2015-Jan-19 11:00N 44°48' W 087°24'0 0.0 340 / 41016.7 -4.5 0.3
2015-Jan-19 10:00N 44°48' W 087°24'0 0.0 350 / 51016.7 -4.4 0.3
2015-Jan-19 09:00N 44°48' W 087°24'0 0.0 340 / 91016.4 -4.4 0.3
2015-Jan-19 08:00N 44°48' W 087°24'0 0.0 350 / 71016.0 -4.0 0.3
2015-Jan-19 07:00N 44°48' W 087°24'0 0.0 350 / 101016.0 -4.0 0.3
2015-Jan-19 06:00N 44°48' W 087°24'0 0.0 340 / 81015.7 -3.7 0.3
2015-Jan-19 05:00N 44°48' W 087°24'0 0.0 350 / 61015.0 -3.4 0.3
2015-Jan-19 04:00N 44°48' W 087°24'0 0.0 350 / 61014.3 -3.0 0.3
2015-Jan-19 03:00N 44°48' W 087°24'0 0.0 040 / 61013.7 -2.4 0.5
2015-Jan-19 02:00N 44°48' W 087°24'0 0.0 020 / 51013.0 -1.7 0.4
2015-Jan-19 01:00N 44°48' W 087°24'0 0.0 330 / 81011.6 -0.5 0.3
2015-Jan-19 00:00N 44°48' W 087°24'0 0.0 300 / 81010.6 1.8 0.4
2015-Jan-18 22:00N 44°48' W 087°24'0 0.0 260 / 71009.3 1.8 0.3
2015-Jan-18 21:00N 44°48' W 087°24'0 0.0 280 / 81008.3 2.3 0.2
2015-Jan-18 20:00N 44°48' W 087°24'0 0.0 310 / 41007.9 2.0 0.2
2015-Jan-18 19:00N 44°48' W 087°24'0 0.0 280 / 71007.6 1.6 0.2
2015-Jan-18 18:00N 44°48' W 087°24'0 0.0 290 / 81006.9 1.2 0.2
2015-Jan-18 17:00N 44°48' W 087°24'0 0.0 290 / 71006.2 1.0 0.2
2015-Jan-18 16:00N 44°48' W 087°24'4 2.1 300 / 121006.2 1.0 0.3
2015-Jan-18 14:00N 44°48' W 087°18'4 4.3 280 / 91004.2 0.7 1.4
2015-Jan-18 13:00N 44°48' W 087°12'4 4.3 290 / 111003.2 0.9 2.6
2015-Jan-18 12:00N 44°48' W 087°06'13 6.4 290 / 171002.2 0.8 2.2
2015-Jan-18 10:00N 45°00' W 087°00'7 7.3 290 / 201000.5 0.9 2.3
2015-Jan-18 09:00N 45°06' W 086°54'1514.7 300 / 22999.4 1.4 2.4
2015-Jan-18 08:00N 45°18' W 086°42'7 7.3 290 / 17998.4 1.5 2.3
2015-Jan-18 07:00N 45°24' W 086°36'1010.3 280 / 11997.8 1.7 1.7
2015-Jan-18 06:00N 45°30' W 086°24'612.0 260 / 14996.7 1.6 1.9
2015-Jan-18 05:31N 45°35' W 086°21'11 9.8
2015-Jan-18 04:26N 45°40' W 086°07'2 4.2
2015-Jan-18 04:00N 45°42' W 086°06'715.7 250 / 15996.1 2.2 1.9
2015-Jan-18 03:33N 45°45' W 085°57'4 6.9
2015-Jan-18 03:00N 45°48' W 085°54'713.5 230 / 18995.7 2.3 0.8
2015-Jan-18 02:27N 45°50' W 085°44'4 9.5
2015-Jan-18 02:00N 45°54' W 085°42'716.1 220 / 14995.7 1.7 0.2
2015-Jan-18 01:33N 45°53' W 085°32'6 9.9
2015-Jan-18 01:00N 45°54' W 085°24'4 9.4 220 / 11996.4 1.7 1.2
2015-Jan-18 00:33N 45°52' W 085°19'5 8.7
2015-Jan-18 00:00N 45°54' W 085°12'613.4 210 / 13996.4 1.6 1.1
2015-Jan-17 23:33N 45°51' W 085°05'814.3
2015-Jan-17 23:00N 45°48' W 084°54'511.6 220 / 14996.7 2.1 0.5
2015-Jan-17 22:33N 45°49' W 084°47'4 6.7
2015-Jan-17 22:00N 45°48' W 084°42'920.3 150 / 16997.1 -1.0 1.3
2015-Jan-17 21:33N 45°51' W 084°30'916.0
2015-Jan-17 21:00N 45°48' W 084°18'510.9 150 / 21998.1 -1.1 2.1
2015-Jan-17 20:33N 45°48' W 084°11'1312.8
2015-Jan-17 19:33N 45°42' W 083°55'813.8
2015-Jan-17 19:00N 45°36' W 083°48'1010.3 160 / 161001.1 -2.6 2.1
2015-Jan-17 18:00N 45°30' W 083°36'3216.0 180 / 231003.5 -3.6 1.2
2015-Jan-17 16:00N 45°06' W 083°06'7 7.3 170 / 281007.6 -2.8 0.8
2015-Jan-17 15:00N 45°00' W 083°00'1312.7 170 / 301010.6 -3.0 2.3
2015-Jan-17 14:00N 44°48' W 082°54'33 8.2 160 / 341012.7 -4.2 1.2
2015-Jan-17 10:00N 44°18' W 082°36'7 7.4 170 / 241019.8 -4.9 1.5
2015-Jan-17 09:00N 44°12' W 082°30'13 6.4 180 / 191021.5 -5.0 1.6
2015-Jan-17 07:00N 44°00' W 082°24'7 7.4 170 / 161022.5 -5.3 2.3
2015-Jan-17 06:00N 43°54' W 082°18'6 6.0 170 / 91023.2 -5.1 2.2
2015-Jan-17 05:00N 43°48' W 082°18'6 6.0 100 / 71023.8 -6.6 2.2
2015-Jan-17 04:00N 43°42' W 082°18'1312.8 120 / 81024.8 -6.9 2.3
2015-Jan-17 03:00N 43°30' W 082°12'13 6.4 090 / 61024.5 -7.1 1.9
2015-Jan-17 01:00N 43°18' W 082°18'1312.8 020 / 51024.8 -7.3 0.3
2015-Jan-17 00:00N 43°06' W 082°24'6 6.0 330 / 101024.8 -7.2 0.2
2015-Jan-16 23:00N 43°00' W 082°24'1312.8 250 / 41024.5 -8.3 0.2
2015-Jan-16 22:00N 42°48' W 082°30'0 0.0 310 / 61024.2 -7.3 0.5
2015-Jan-16 21:00N 42°48' W 082°30'0 0.0 050 / 31023.2 -5.5 5.4
2015-Jan-16 20:00N 42°48' W 082°30'0 0.0 050 / 91022.5 -5.7 4.5
2015-Jan-16 19:00N 42°48' W 082°30'0 0.0 110 / 21021.8 -5.5 4.9
2015-Jan-16 18:00N 42°48' W 082°30'0 0.0 250 / 21021.8 -5.2 4.6
2015-Jan-16 17:00N 42°48' W 082°30'0 0.0 1021.5 -4.6 5.1
2015-Jan-16 16:00N 42°48' W 082°30'0 0.0 360 / 11021.1 -3.6 4.9
2015-Jan-16 14:00N 42°48' W 082°30'0 0.0 040 / 31019.1 -3.5 4.3
2015-Jan-16 13:00N 42°48' W 082°30'0 0.0 240 / 21017.4 -3.2 4.8
2015-Jan-16 12:00N 42°48' W 082°30'0 0.0 300 / 11016.7 -2.5 5.2
2015-Jan-16 11:00N 42°48' W 082°30'0 0.0 120 / 11015.4 -1.9 5.4
2015-Jan-16 10:00N 42°48' W 082°30'0 0.0 300 / 61013.3 -3.2 5.2
2015-Jan-16 09:00N 42°48' W 082°30'0 0.0 290 / 91013.0 -3.6 5.1
2015-Jan-16 07:00N 42°48' W 082°30'0 0.0 270 / 61012.0 -3.5 5.2
2015-Jan-16 06:00N 42°48' W 082°30'0 0.0 290 / 31011.6 -2.7 5.2
2015-Jan-16 02:00N 42°48' W 082°30'1312.8 200 / 91011.6 -3.7 0.1
2015-Jan-16 01:00N 43°00' W 082°24'6 6.0 220 / 121011.0 -4.1 0.1
2015-Jan-16 00:00N 43°06' W 082°24'6 6.0 220 / 211009.6 -3.9 0.2
2015-Jan-15 23:00N 43°12' W 082°24'0 0.0 200 / 211011.0 -3.7 0.2
2015-Jan-15 22:00N 43°12' W 082°24'6 6.0 200 / 231010.6 -3.6 0.2
2015-Jan-15 21:00N 43°18' W 082°24'6 6.0 200 / 211010.3 -3.9 0.2
2015-Jan-15 20:00N 43°24' W 082°24'1212.0 200 / 201010.3 -4.4 0.3
2015-Jan-15 19:00N 43°36' W 082°24'1312.8 190 / 181010.6 -5.4 0.4
2015-Jan-15 18:00N 43°48' W 082°30'2612.8 190 / 191011.3 -5.8 0.8
2015-Jan-15 16:00N 44°12' W 082°42'7 7.4 220 / 221013.0 -5.5 1.7
2015-Jan-15 15:00N 44°18' W 082°48'1212.0 240 / 241013.3 -5.5 1.6
2015-Jan-15 14:00N 44°30' W 082°48'4411.0 230 / 231013.0 -5.1 1.2
2015-Jan-15 10:00N 45°12' W 083°06'1514.7 220 / 191015.0 -4.7 2.5
2015-Jan-15 09:00N 45°24' W 083°18'1514.7 220 / 161015.4 -5.0 1.2
2015-Jan-15 08:00N 45°36' W 083°30'1010.3 220 / 181015.7 -4.5 1.7
2015-Jan-15 07:00N 45°42' W 083°42'2213.3 210 / 171016.0 -4.2 2.0
2015-Jan-15 05:20N 46°02' W 083°56'7 8.3
2015-Jan-15 04:27N 46°08' W 084°01'511.2
2015-Jan-15 04:00N 46°12' W 084°06'3 6.0 180 / 21019.1 -6.8 0.2
2015-Jan-15 03:33N 46°13' W 084°10'5 9.5
2015-Jan-15 03:00N 46°18' W 084°12'0 0.0 200 / 31020.1 -7.1 0.1
2015-Jan-15 02:00N 46°18' W 084°12'3 4.4 200 / 51020.1 -6.6 0.1
2015-Jan-15 01:22N 46°21' W 084°13'3 7.4
2015-Jan-15 01:00N 46°18' W 084°12'6 6.0 220 / 51020.4 -6.9 0.1
2015-Jan-15 00:00N 46°24' W 084°12'10 5.1 250 / 41020.4 -7.0 0.1
2015-Jan-14 22:00N 46°30' W 084°24'0 0.0 210 / 41020.7 -5.5 0.2
2015-Jan-14 21:00N 46°30' W 084°24'0 0.0 200 / 51020.3 -6.1 0.1
2015-Jan-14 20:00N 46°30' W 084°24'0 0.0 280 / 41020.7 -5.8 0.1
2015-Jan-14 19:00N 46°30' W 084°24'4 4.1 240 / 51020.7 -4.9 0.1
2015-Jan-14 18:00N 46°30' W 084°30'3 5.5 240 / 61021.3 -6.7 0.1
2015-Jan-14 17:22N 46°27' W 084°33'4 2.6
2015-Jan-14 16:00N 46°30' W 084°36'0 0.0 260 / 81022.4 -6.5 0.2
2015-Jan-14 15:00N 46°30' W 084°36'0 0.0 240 / 71022.7 -7.1 0.2
2015-Jan-14 14:00N 46°30' W 084°36'0 0.0 180 / 11022.7 -8.2 0.2
2015-Jan-14 13:00N 46°30' W 084°36'0 0.0 140 / 31022.7 -9.3 0.2
2015-Jan-14 12:00N 46°30' W 084°36'1 2.5 170 / 51023.0 -9.8 0.2
2015-Jan-14 11:30N 46°29' W 084°35'1 2.4
2015-Jan-14 11:00N 46°30' W 084°36'0 0.0 180 / 71023.4 0.2
2015-Jan-14 10:00N 46°30' W 084°36'0 0.0 130 / 61024.7 0.2
2015-Jan-14 09:00N 46°30' W 084°36'1 2.2 120 / 81025.7 0.2
2015-Jan-14 08:26N 46°29' W 084°35'0 0.0
2015-Jan-14 07:05N 46°29' W 084°35'113.2
2015-Jan-14 07:00N 46°30' W 084°36'0 0.0 110 / 81027.4 0.2
2015-Jan-14 06:00N 46°30' W 084°36'1 1.6 100 / 81028.1 0.2
2015-Jan-14 05:12N 46°29' W 084°35'1 5.9
2015-Jan-14 05:00N 46°30' W 084°36'0 0.0 120 / 101029.5 0.2
2015-Jan-14 04:00N 46°30' W 084°36'0 0.0 110 / 91030.8 0.2
2015-Jan-14 02:00N 46°30' W 084°36'0 0.0 110 / 61032.5 0.1
2015-Jan-14 01:00N 46°30' W 084°36'0 0.0 160 / 81033.9 0.2
2015-Jan-13 23:00N 46°30' W 084°36'0 0.0 170 / 121034.9 -9.9 0.2
2015-Jan-13 22:00N 46°30' W 084°36'0 0.0 180 / 71035.6 0.2
2015-Jan-13 19:00N 46°30' W 084°36'1 2.0 200 / 91037.6 -9.4 0.2
2015-Jan-13 18:23N 46°29' W 084°35'1 3.2
2015-Jan-13 18:00N 46°30' W 084°36'0 0.6 090 / 61038.6 0.2
2015-Jan-13 17:29N 46°30' W 084°36'4 8.3
2015-Jan-13 17:00N 46°30' W 084°42'612.3 120 / 81039.3 0.3
2015-Jan-13 16:29N 46°36' W 084°44'4 3.5
2015-Jan-13 15:22N 46°40' W 084°46'3 6.9
2015-Jan-13 15:00N 46°42' W 084°48'3 5.0 230 / 201039.6 0.9
2015-Jan-13 14:27N 46°40' W 084°47'3 3.6
2015-Jan-13 13:33N 46°42' W 084°50'5 4.7
2015-Jan-13 12:33N 46°46' W 084°54'2 3.7
2015-Jan-13 12:00N 46°48' W 084°54'5 9.8 240 / 171038.9 0.5
2015-Jan-13 11:29N 46°50' W 085°01'4 8.0
2015-Jan-13 11:00N 46°48' W 085°06'610.0 240 / 141039.3 0.7
2015-Jan-13 10:21N 46°53' W 085°12'411.6
2015-Jan-13 10:00N 46°54' W 085°18'1413.7 300 / 111039.6 -7.5 2.2
2015-Jan-13 09:00N 47°00' W 085°36'10413.0 270 / 101039.6 -8.0 3.4
2015-Jan-13 01:00N 47°36' W 088°00'1212.1 280 / 121041.0 3.2
2015-Jan-13 00:00N 47°36' W 088°18'6512.9 300 / 81041.0 2.9
2015-Jan-12 19:00N 47°36' W 089°54'1616.2 330 / 81041.0 2.1
2015-Jan-12 18:00N 47°36' W 090°18'2512.5 350 / 121041.0 1.8
2015-Jan-12 16:00N 47°30' W 090°54'1414.5 120 / 151041.0 1.8
2015-Jan-12 15:00N 47°18' W 091°06'1010.1 340 / 191040.3 2.0
2015-Jan-12 14:00N 47°12' W 091°18'1717.2 220 / 171038.6 2.1
2015-Jan-12 13:00N 47°00' W 091°36'1010.2 340 / 151037.3 3.0
2015-Jan-12 12:00N 46°54' W 091°48'1010.2 010 / 181036.2 1.8
2015-Jan-12 11:00N 46°48' W 092°00'7 7.3 350 / 181034.9 0.3
2015-Jan-12 10:00N 46°42' W 092°06'0 0.0 320 / 161034.2 0.4
2015-Jan-12 09:00N 46°42' W 092°06'0 0.0 320 / 101033.2 0.5
2015-Jan-12 08:00N 46°42' W 092°06'0 0.0 060 / 81032.2 0.3
2015-Jan-12 07:00N 46°42' W 092°06'0 0.0 320 / 71030.8 0.3
2015-Jan-12 06:00N 46°42' W 092°06'0 0.0 310 / 51029.8 0.3
2015-Jan-12 05:00N 46°42' W 092°06'0 0.0 280 / 61029.1 0.4
2015-Jan-12 04:00N 46°42' W 092°06'0 0.0 210 / 71028.4 0.4
2015-Jan-12 02:00N 46°42' W 092°06'0 0.0 230 / 51027.4 0.5
2015-Jan-12 01:00N 46°42' W 092°06'0 0.0 280 / 51027.4 0.5
2015-Jan-12 00:00N 46°42' W 092°06'0 0.0 340 / 61026.8 0.6
2015-Jan-11 23:00N 46°42' W 092°06'0 0.0 260 / 41026.1 0.6
2015-Jan-11 22:00N 46°42' W 092°06'6 3.0 270 / 81025.7 0.4
2015-Jan-11 20:00N 46°48' W 092°06'0 0.0 260 / 91025.4 0.4
2015-Jan-11 19:00N 46°48' W 092°06'1413.7 220 / 41025.1 0.6
2015-Jan-11 18:00N 46°54' W 091°48'1413.7 150 / 41024.4 1.9
2015-Jan-11 17:00N 47°00' W 091°30'1413.7 310 / 61024.4 2.6
2015-Jan-11 16:00N 47°06' W 091°12'1413.6 290 / 71024.0 2.2
2015-Jan-11 15:00N 47°12' W 090°54'1212.2 330 / 71023.7 1.6
2015-Jan-11 14:00N 47°12' W 090°36'7913.2 320 / 131022.4 1.4
2015-Jan-11 08:00N 47°30' W 088°42'1717.3 350 / 101019.3 -9.2 3.2
2015-Jan-11 07:00N 47°36' W 088°18'1212.1 350 / 81019.3 5.4 1.0-8.7 3.1
2015-Jan-11 06:00N 47°36' W 088°00'1413.5 220 / 81019.3 -8.8 2.9
2015-Jan-11 05:00N 47°30' W 087°42'7410.6 250 / 91019.6 -9.7 0.9
2015-Jan-10 22:00N 46°48' W 086°12'8 8.2 220 / 181017.3 -8.3 2.4
2015-Jan-10 21:00N 46°48' W 086°00'8 8.2 210 / 221016.9 -8.8 1.9
2015-Jan-10 20:00N 46°48' W 085°48'8 8.2 230 / 231016.3 1.5
2015-Jan-10 19:00N 46°48' W 085°36'1212.3 230 / 251015.6 2.2
2015-Jan-10 18:00N 46°48' W 085°18'8 8.2 210 / 261015.6 0.9
2015-Jan-10 17:00N 46°48' W 085°06'1010.2 220 / 231015.9 0.1
2015-Jan-10 16:00N 46°42' W 084°54'4 0.7 230 / 221016.9 0.2
2015-Jan-10 10:00N 46°42' W 085°00'0 0.0 240 / 191016.3 0.3
2015-Jan-10 08:00N 46°42' W 085°00'0 0.0 230 / 231015.9 0.3
2015-Jan-10 07:00N 46°42' W 085°00'0 0.0 250 / 151015.9 0.0 0.3
2015-Jan-10 02:00N 46°42' W 085°00'0 0.0 240 / 211014.2 0.3
2015-Jan-10 01:00N 46°42' W 085°00'0 0.0 240 / 261013.5 0.2
2015-Jan-10 00:00N 46°42' W 085°00'0 0.0 230 / 271012.5 0.2
2015-Jan-09 23:00N 46°42' W 085°00'0 0.0 250 / 221012.5 0.2
2015-Jan-09 22:00N 46°42' W 085°00'0 0.0 230 / 171012.5 0.3
2015-Jan-09 20:00N 46°42' W 085°00'0 0.0 250 / 131011.5 0.3
2015-Jan-09 19:00N 46°42' W 085°00'0 0.0 310 / 161011.5 0.3
2015-Jan-09 18:00N 46°42' W 085°00'0 0.0 300 / 171011.2 0.3
2015-Jan-09 16:00N 46°42' W 085°00'0 0.0 280 / 191011.2 0.3
2015-Jan-09 15:00N 46°42' W 085°00'   300 / 61010.8 0.3

Dump ship's entire track history